createdAt,value
2023-01-13T00:02:05.918Z,2.72
2023-01-13T00:04:40.242Z,3.10
2023-01-13T00:07:13.240Z,1.58
2023-01-13T00:09:46.134Z,2.03
2023-01-13T00:12:19.005Z,3.25
2023-01-13T00:14:51.998Z,3.38
2023-01-13T00:17:25.082Z,1.25
2023-01-13T00:19:59.308Z,1.63
2023-01-13T00:22:34.466Z,1.58
2023-01-13T00:25:07.901Z,2.08
2023-01-13T00:27:40.782Z,5.32
2023-01-13T00:30:14.125Z,3.03
2023-01-13T00:32:47.061Z,3.35
2023-01-13T00:35:21.333Z,4.97
2023-01-13T00:37:54.296Z,2.60
2023-01-13T00:40:27.172Z,0.98
2023-01-13T00:43:17.486Z,2.75
2023-01-13T00:45:51.532Z,4.95
2023-01-13T00:48:25.952Z,1.33
2023-01-13T00:51:04.326Z,2.10
2023-01-13T00:53:39.120Z,2.17
2023-01-13T00:56:15.066Z,3.90
2023-01-13T00:58:49.136Z,2.35
2023-01-13T01:01:24.245Z,2.63
2023-01-13T01:03:57.257Z,0.82
2023-01-13T01:06:31.577Z,2.10
2023-01-13T01:09:05.719Z,0.93
2023-01-13T01:11:38.583Z,2.25
2023-01-13T01:14:13.977Z,1.73
2023-01-13T01:16:46.925Z,1.83
2023-01-13T01:19:19.842Z,1.77
2023-01-13T01:21:55.108Z,3.55
2023-01-13T01:24:27.980Z,2.65
2023-01-13T01:27:01.013Z,3.78
2023-01-13T01:29:33.948Z,1.75
2023-01-13T01:32:07.512Z,2.67
2023-01-13T01:34:40.628Z,3.67
2023-01-13T01:37:15.016Z,1.95
2023-01-13T01:39:47.933Z,0.80
2023-01-13T01:42:38.336Z,1.42
2023-01-13T01:45:18.742Z,2.13
2023-01-13T01:47:57.672Z,2.70
2023-01-13T01:50:31.301Z,2.40
2023-01-13T01:53:11.422Z,1.63
2023-01-13T01:55:44.520Z,1.25
2023-01-13T01:58:21.364Z,2.05
2023-01-13T02:00:54.327Z,1.55
2023-01-13T02:03:27.549Z,3.13
2023-01-13T02:06:00.699Z,1.77
2023-01-13T02:08:35.964Z,1.23
2023-01-13T02:11:30.309Z,1.85
2023-01-13T02:14:02.260Z,3.35
2023-01-13T02:16:35.369Z,2.38
2023-01-13T02:19:28.076Z,2.88
2023-01-13T02:22:35.151Z,5.50
2023-01-13T02:25:32.035Z,3.63
2023-01-13T02:28:22.724Z,5.13
2023-01-13T02:34:01.990Z,3.70
2023-01-13T02:36:43.798Z,2.03
2023-01-13T02:39:24.516Z,2.33
2023-01-13T02:42:20.249Z,1.73
2023-01-13T02:44:57.100Z,1.10
2023-01-13T02:47:35.373Z,3.88
2023-01-13T02:50:13.499Z,1.65
2023-01-13T02:52:52.280Z,1.13
2023-01-13T02:55:31.157Z,0.65
2023-01-13T02:58:07.421Z,2.47
2023-01-13T03:00:41.297Z,0.95
2023-01-13T03:03:15.488Z,1.33
2023-01-13T03:05:51.497Z,0.20
2023-01-13T03:08:34.699Z,3.72
2023-01-13T03:11:09.703Z,2.85
2023-01-13T03:14:09.387Z,0.90
2023-01-13T03:16:52.964Z,1.90
2023-01-13T03:19:35.020Z,1.05
2023-01-13T03:22:16.204Z,2.28
2023-01-13T03:24:56.337Z,1.90
2023-01-13T03:27:33.786Z,2.08
2023-01-13T03:30:10.304Z,0.85
2023-01-13T03:32:46.487Z,3.20
2023-01-13T03:35:24.897Z,1.90
2023-01-13T03:38:03.845Z,1.17
2023-01-13T03:40:43.039Z,1.98
2023-01-13T03:43:38.422Z,1.13
2023-01-13T03:46:17.729Z,2.25
2023-01-13T03:48:57.010Z,2.20
2023-01-13T03:51:34.797Z,3.47
2023-01-13T03:54:12.403Z,1.20
2023-01-13T03:56:48.880Z,1.90
2023-01-13T03:59:27.436Z,1.30
2023-01-13T04:02:04.562Z,1.85
2023-01-13T04:04:42.855Z,0.55
2023-01-13T04:07:28.664Z,0.63
2023-01-13T04:10:04.795Z,0.77
2023-01-13T04:12:56.845Z,3.30
2023-01-13T04:15:32.542Z,2.85
2023-01-13T04:18:17.236Z,3.58
2023-01-13T04:20:52.306Z,1.42
2023-01-13T04:23:27.868Z,1.75
2023-01-13T04:26:01.022Z,0.32
2023-01-13T04:28:34.979Z,2.20
2023-01-13T04:31:07.829Z,2.35
2023-01-13T04:33:40.744Z,1.17
2023-01-13T04:36:13.609Z,1.45
2023-01-13T04:38:47.706Z,0.70
2023-01-13T04:41:20.493Z,3.20
2023-01-13T04:43:53.372Z,0.52
2023-01-13T04:46:26.259Z,3.25
2023-01-13T04:48:59.194Z,1.17
2023-01-13T04:51:32.052Z,1.25
2023-01-13T04:54:06.397Z,4.90
2023-01-13T04:56:39.173Z,1.13
2023-01-13T04:59:12.972Z,1.05
2023-01-13T05:01:45.929Z,0.82
2023-01-13T05:04:18.837Z,2.58
2023-01-13T05:06:52.265Z,1.10
2023-01-13T05:09:26.406Z,0.20
2023-01-13T05:12:20.394Z,0.82
2023-01-13T05:15:10.803Z,0.60
2023-01-13T05:17:44.168Z,1.27
2023-01-13T05:20:18.302Z,1.52
2023-01-13T05:23:08.571Z,1.25
2023-01-13T05:25:44.768Z,0.63
2023-01-13T05:28:18.057Z,1.13
2023-01-13T05:30:52.402Z,1.95
2023-01-13T05:33:25.246Z,2.70
2023-01-13T05:36:02.608Z,0.55
2023-01-13T05:38:35.353Z,1.08
2023-01-13T05:41:42.694Z,0.65
2023-01-13T05:44:15.496Z,0.40
2023-01-13T05:46:48.444Z,1.05
2023-01-13T05:49:21.302Z,0.85
2023-01-13T05:51:54.042Z,2.13
2023-01-13T05:54:26.864Z,3.58
2023-01-13T05:57:00.967Z,0.75
2023-01-13T05:59:33.697Z,1.95
2023-01-13T06:02:06.550Z,0.80
2023-01-13T06:04:39.390Z,1.05
2023-01-13T06:07:12.588Z,1.60
2023-01-13T06:09:45.443Z,2.72
2023-01-13T06:12:19.604Z,5.90
2023-01-13T06:14:52.495Z,0.40
2023-01-13T06:17:25.305Z,2.20
2023-01-13T06:19:58.045Z,1.95
2023-01-13T06:22:32.941Z,1.83
2023-01-13T06:25:09.449Z,1.02
2023-01-13T06:27:43.759Z,2.47
2023-01-13T06:30:17.553Z,0.70
2023-01-13T06:32:53.284Z,1.45
2023-01-13T06:35:30.702Z,4.85
2023-01-13T06:38:08.521Z,2.58
2023-01-13T06:40:43.342Z,1.42
2023-01-13T06:43:17.382Z,0.93
2023-01-13T06:45:53.487Z,2.00
2023-01-13T06:48:32.827Z,2.13
2023-01-13T06:51:06.358Z,1.85
2023-01-13T06:53:39.176Z,1.23
2023-01-13T06:56:11.943Z,1.27
2023-01-13T06:58:46.062Z,2.40
2023-01-13T07:01:19.127Z,0.65
2023-01-13T07:03:52.026Z,1.52
2023-01-13T07:06:24.866Z,0.98
2023-01-13T07:08:57.673Z,1.33
2023-01-13T07:11:30.523Z,0.93
2023-01-13T07:14:22.253Z,1.60
2023-01-13T07:16:55.143Z,1.15
2023-01-13T07:19:27.923Z,0.85
2023-01-13T07:22:00.714Z,2.75
2023-01-13T07:24:33.469Z,2.55
2023-01-13T07:27:06.207Z,1.73
2023-01-13T07:29:40.353Z,1.98
2023-01-13T07:32:13.103Z,2.22
2023-01-13T07:34:45.847Z,1.50
2023-01-13T07:37:18.662Z,2.03
2023-01-13T07:39:51.355Z,1.50
2023-01-13T07:42:41.993Z,0.55
2023-01-13T07:45:16.284Z,1.48
2023-01-13T07:47:52.424Z,0.63
2023-01-13T07:50:25.211Z,2.17
2023-01-13T07:52:59.173Z,1.10
2023-01-13T07:55:31.962Z,4.60
2023-01-13T07:58:04.751Z,3.58
2023-01-13T08:00:39.877Z,1.92
2023-01-13T08:03:12.612Z,3.17
2023-01-13T08:05:45.757Z,1.70
2023-01-13T08:08:19.632Z,1.02
2023-01-13T08:10:52.409Z,0.75
2023-01-13T08:13:25.183Z,2.13
2023-01-13T08:16:03.122Z,2.10
2023-01-13T08:18:39.214Z,2.42
2023-01-13T08:21:13.697Z,4.40
2023-01-13T08:23:46.920Z,1.67
2023-01-13T08:26:20.105Z,1.90
2023-01-13T08:28:52.936Z,0.00
2023-01-13T08:31:27.083Z,0.00
2023-01-13T08:33:59.865Z,0.00
2023-01-13T08:36:32.635Z,0.00
2023-01-13T08:39:05.597Z,0.00
2023-01-13T08:41:56.436Z,0.00
2023-01-13T08:44:31.112Z,0.00
2023-01-13T08:47:05.400Z,0.08
2023-01-13T08:49:38.145Z,0.00
2023-01-13T08:52:11.077Z,0.00
2023-01-13T08:54:43.908Z,0.00
2023-01-13T08:57:17.093Z,0.00
2023-01-13T08:59:49.916Z,0.00
2023-01-13T09:02:25.798Z,0.00
2023-01-13T09:05:00.656Z,0.00
2023-01-13T09:07:34.166Z,0.00
2023-01-13T09:10:09.192Z,0.00
2023-01-13T09:12:59.391Z,0.00
2023-01-13T09:15:32.233Z,0.08
2023-01-13T09:18:06.662Z,0.00
2023-01-13T09:20:39.912Z,0.03
2023-01-13T09:23:12.854Z,0.10
2023-01-13T09:25:45.647Z,0.00
2023-01-13T09:28:18.508Z,0.00
2023-01-13T09:30:51.335Z,3.90
2023-01-13T09:33:43.136Z,0.00
2023-01-13T09:36:15.927Z,0.00
2023-01-13T09:38:50.431Z,0.00
2023-01-13T09:41:44.016Z,0.00
2023-01-13T09:44:21.806Z,0.00
2023-01-13T09:47:01.032Z,0.00
2023-01-13T09:49:39.666Z,0.00
2023-01-13T09:52:19.204Z,0.00
2023-01-13T09:54:56.792Z,0.00
2023-01-13T09:57:33.484Z,0.00
2023-01-13T10:00:13.017Z,0.00
2023-01-13T10:03:01.587Z,0.10
2023-01-13T10:05:39.305Z,0.00
2023-01-13T10:08:14.233Z,0.00
2023-01-13T10:10:49.804Z,0.00
2023-01-13T10:13:24.236Z,0.00
2023-01-13T10:16:20.117Z,0.00
2023-01-13T10:19:05.913Z,0.00
2023-01-13T10:22:01.549Z,0.00
2023-01-13T10:24:53.845Z,0.10
2023-01-13T10:27:33.089Z,0.00
2023-01-13T10:30:18.816Z,0.05
2023-01-13T10:32:55.836Z,0.08
2023-01-13T10:35:48.582Z,0.00
2023-01-13T10:38:25.227Z,0.03
2023-01-13T10:40:59.868Z,0.00
2023-01-13T10:43:33.047Z,0.00
2023-01-13T10:46:07.950Z,0.10
2023-01-13T10:48:43.377Z,0.00
2023-01-13T10:51:25.318Z,0.00
2023-01-13T10:54:02.634Z,0.00
2023-01-13T10:56:35.920Z,0.00
2023-01-13T10:59:18.497Z,0.10
2023-01-13T11:02:01.212Z,0.00
2023-01-13T11:04:37.653Z,0.10
2023-01-13T11:07:23.701Z,0.10
2023-01-13T11:10:16.329Z,0.00
2023-01-13T11:12:55.232Z,0.10
2023-01-13T11:15:39.507Z,0.10
2023-01-13T11:18:20.491Z,0.00
2023-01-13T11:20:55.965Z,0.10
2023-01-13T11:23:35.377Z,0.00
2023-01-13T11:26:15.691Z,2.00
2023-01-13T11:28:54.354Z,0.00
2023-01-13T11:31:32.423Z,0.10
2023-01-13T11:34:15.015Z,0.00
2023-01-13T11:36:52.464Z,0.08
2023-01-13T11:39:31.084Z,0.10
2023-01-13T11:42:22.504Z,0.00
2023-01-13T11:45:04.818Z,0.05
2023-01-13T11:47:40.770Z,0.05
2023-01-13T11:50:20.603Z,0.00
2023-01-13T11:53:26.356Z,0.10
2023-01-13T11:56:14.711Z,0.00
2023-01-13T11:59:06.658Z,0.10
2023-01-13T12:01:56.258Z,0.00
2023-01-13T12:04:38.345Z,0.10
2023-01-13T12:07:18.478Z,0.10
2023-01-13T12:10:05.190Z,0.10
2023-01-13T12:12:49.358Z,0.00
2023-01-13T12:15:57.432Z,0.00
2023-01-13T12:19:03.609Z,0.08
2023-01-13T12:21:41.371Z,0.00
2023-01-13T12:24:21.805Z,0.10
2023-01-13T12:29:37.567Z,0.10
2023-01-13T12:32:15.519Z,0.45
2023-01-13T12:35:06.733Z,0.03
2023-01-13T12:37:45.401Z,0.00
2023-01-13T12:40:35.900Z,0.10
2023-01-13T12:46:50.513Z,0.00
2023-01-13T12:49:26.034Z,0.08
2023-01-13T12:52:21.324Z,0.00
2023-01-13T12:55:20.984Z,0.00
2023-01-13T12:58:15.274Z,0.10
2023-01-13T13:00:58.985Z,0.10
2023-01-13T13:03:36.657Z,5.32
2023-01-13T13:06:18.933Z,6.82
2023-01-13T13:09:04.163Z,3.58
2023-01-13T13:12:01.195Z,4.30
2023-01-13T13:15:06.775Z,3.17
2023-01-13T13:18:01.071Z,4.40
2023-01-13T13:20:59.191Z,4.00
2023-01-13T13:23:47.997Z,6.10
2023-01-13T13:26:30.840Z,5.25
2023-01-13T13:29:17.313Z,3.25
2023-01-13T13:32:07.034Z,4.55
2023-01-13T13:34:49.472Z,3.53
2023-01-13T13:37:59.918Z,1.48
2023-01-13T13:43:45.609Z,5.65
2023-01-13T13:46:45.549Z,4.85
2023-01-13T13:49:54.285Z,6.43
2023-01-13T13:52:36.604Z,3.92
2023-01-13T13:55:18.739Z,9.93
2023-01-13T13:57:54.073Z,2.75
2023-01-13T14:00:31.011Z,3.50
2023-01-13T14:03:07.366Z,2.63
2023-01-13T14:05:41.087Z,7.38
2023-01-13T14:08:17.492Z,3.17
2023-01-13T14:10:50.700Z,5.60
2023-01-13T14:13:25.666Z,6.57
2023-01-13T14:16:01.541Z,5.35
2023-01-13T14:18:41.420Z,6.95
2023-01-13T14:21:21.590Z,5.88
2023-01-13T14:23:58.349Z,7.85
2023-01-13T14:26:34.415Z,9.27
2023-01-13T14:29:07.845Z,4.50
2023-01-13T14:31:43.198Z,2.22
2023-01-13T14:34:31.512Z,2.03
2023-01-13T14:37:23.931Z,5.60
2023-01-13T14:39:56.839Z,4.28
2023-01-13T14:42:31.554Z,5.40
2023-01-13T14:45:04.695Z,3.25
2023-01-13T14:47:40.389Z,7.00
2023-01-13T14:50:21.972Z,2.58
2023-01-13T14:52:57.137Z,3.88
2023-01-13T14:55:31.810Z,4.78
2023-01-13T14:58:26.123Z,7.05
2023-01-13T15:01:29.228Z,3.35
2023-01-13T15:04:25.749Z,2.38
2023-01-13T15:06:59.475Z,4.97
2023-01-13T15:09:40.983Z,4.68
2023-01-13T15:12:29.248Z,3.63
2023-01-13T15:15:05.475Z,9.73
2023-01-13T15:17:38.773Z,5.97
2023-01-13T15:20:17.369Z,3.80
2023-01-13T15:22:53.985Z,4.50
2023-01-13T15:25:33.475Z,6.97
2023-01-13T15:28:07.403Z,6.32
2023-01-13T15:30:40.173Z,8.45
2023-01-13T15:33:14.441Z,11.02
2023-01-13T15:35:51.272Z,9.20
2023-01-13T15:38:25.344Z,4.85
2023-01-13T15:40:58.134Z,6.00
2023-01-13T15:43:48.260Z,7.82
2023-01-13T15:46:39.616Z,4.22
2023-01-13T15:49:21.972Z,8.38
2023-01-13T15:51:56.117Z,3.28
2023-01-13T15:54:28.934Z,6.35
2023-01-13T15:57:02.032Z,5.25
2023-01-13T15:59:34.963Z,4.88
2023-01-13T16:02:14.905Z,8.60
2023-01-13T16:04:47.733Z,3.88
2023-01-13T16:07:23.608Z,8.20
2023-01-13T16:09:56.357Z,5.78
2023-01-13T16:12:29.101Z,5.72
2023-01-13T16:15:01.880Z,2.75
2023-01-13T16:17:36.237Z,4.65
2023-01-13T16:20:14.494Z,2.75
2023-01-13T16:22:49.881Z,3.50
2023-01-13T16:25:25.009Z,6.50
2023-01-13T16:27:57.850Z,2.42
2023-01-13T16:30:32.849Z,2.88
2023-01-13T16:33:05.619Z,6.85
2023-01-13T16:36:08.916Z,4.53
2023-01-13T16:38:32.485Z,5.60
2023-01-13T16:41:05.478Z,7.15
2023-01-13T16:43:38.912Z,4.18
2023-01-13T16:46:19.417Z,3.03
2023-01-13T16:51:26.069Z,7.82
2023-01-13T16:54:00.303Z,4.70
2023-01-13T16:56:34.803Z,5.47
2023-01-13T16:59:09.558Z,4.57
2023-01-13T17:01:44.791Z,7.50
2023-01-13T17:04:20.466Z,3.85
2023-01-13T17:06:58.343Z,5.72
2023-01-13T17:09:32.695Z,10.65
2023-01-13T17:12:05.630Z,3.65
2023-01-13T17:14:38.455Z,8.50
2023-01-13T17:17:21.883Z,5.72
2023-01-13T17:19:55.665Z,7.35
2023-01-13T17:22:28.541Z,10.13
2023-01-13T17:25:02.689Z,8.43
2023-01-13T17:27:35.664Z,7.82
2023-01-13T17:30:09.897Z,14.55
2023-01-13T17:32:43.272Z,5.68
2023-01-13T17:35:19.051Z,5.10
2023-01-13T17:37:52.065Z,7.70
2023-01-13T17:40:26.191Z,7.75
2023-01-13T17:42:58.979Z,8.38
2023-01-13T17:45:31.929Z,10.40
2023-01-13T17:48:06.246Z,10.80
2023-01-13T17:50:39.659Z,8.25
2023-01-13T17:53:12.440Z,10.80
2023-01-13T17:55:52.308Z,12.00
2023-01-13T17:58:25.353Z,6.95
2023-01-13T18:00:58.207Z,5.70
2023-01-13T18:03:31.128Z,5.93
2023-01-13T18:06:05.110Z,5.50
2023-01-13T18:08:37.877Z,8.57
2023-01-13T18:11:12.017Z,11.20
2023-01-13T18:13:45.807Z,5.35
2023-01-13T18:16:20.570Z,9.23
2023-01-13T18:19:17.140Z,6.78
2023-01-13T18:22:07.681Z,8.63
2023-01-13T18:27:34.689Z,7.80
2023-01-13T18:30:08.726Z,5.60
2023-01-13T18:32:41.557Z,8.32
2023-01-13T18:35:14.383Z,8.88
2023-01-13T18:37:47.182Z,6.20
2023-01-13T18:40:20.226Z,6.15
2023-01-13T18:42:56.170Z,8.73
2023-01-13T18:45:30.912Z,8.05
2023-01-13T18:48:05.653Z,6.85
2023-01-13T18:50:38.502Z,5.88
2023-01-13T18:53:11.293Z,7.07
2023-01-13T18:55:44.062Z,6.15
2023-01-13T18:58:20.369Z,11.45
2023-01-13T19:01:01.739Z,10.80
2023-01-13T19:03:34.685Z,8.75
2023-01-13T19:06:12.383Z,7.82
2023-01-13T19:08:45.355Z,9.88
2023-01-13T19:11:19.565Z,7.82
2023-01-13T19:13:54.141Z,10.23
2023-01-13T19:16:26.920Z,6.65
2023-01-13T19:19:00.419Z,7.22
2023-01-13T19:21:33.186Z,6.32
2023-01-13T19:24:06.718Z,7.15
2023-01-13T19:26:39.509Z,4.28
2023-01-13T19:29:14.475Z,4.13
2023-01-13T19:31:47.295Z,4.93
2023-01-13T19:34:20.277Z,7.80
2023-01-13T19:36:53.999Z,6.30
2023-01-13T19:39:27.416Z,7.70
2023-01-13T19:42:23.149Z,7.25
2023-01-13T19:45:14.779Z,7.90
2023-01-13T19:47:47.615Z,4.15
2023-01-13T19:50:20.678Z,10.07
2023-01-13T19:52:53.797Z,5.50
2023-01-13T19:55:26.692Z,10.90
2023-01-13T19:57:59.520Z,5.68
2023-01-13T20:00:34.866Z,10.43
2023-01-13T20:03:10.792Z,7.90
2023-01-13T20:05:44.116Z,4.47
2023-01-13T20:08:17.219Z,8.05
2023-01-13T20:10:50.702Z,7.60
2023-01-13T20:13:23.416Z,6.10
2023-01-13T20:15:57.640Z,5.25
2023-01-13T20:18:36.438Z,3.22
2023-01-13T20:21:09.592Z,6.38
2023-01-13T20:23:42.524Z,3.55
2023-01-13T20:26:15.307Z,9.02
2023-01-13T20:28:48.686Z,13.80
2023-01-13T20:31:22.895Z,3.85
2023-01-13T20:33:55.643Z,9.05
2023-01-13T20:36:31.523Z,7.18
2023-01-13T20:39:07.163Z,7.72
2023-01-13T20:41:57.403Z,11.05
2023-01-13T20:44:30.558Z,8.45
2023-01-13T20:47:04.819Z,5.53
2023-01-13T20:49:37.693Z,8.93
2023-01-13T20:52:10.703Z,9.70
2023-01-13T20:54:43.610Z,7.18
2023-01-13T20:57:16.365Z,3.28
2023-01-13T20:59:49.152Z,6.90
2023-01-13T21:02:25.388Z,6.30
2023-01-13T21:04:59.029Z,3.80
2023-01-13T21:07:31.757Z,7.63
2023-01-13T21:10:04.843Z,5.47
2023-01-13T21:12:55.048Z,7.43
2023-01-13T21:15:28.184Z,6.10
2023-01-13T21:18:20.261Z,9.10
2023-01-13T21:21:11.307Z,4.82
2023-01-13T21:23:47.219Z,6.60
2023-01-13T21:26:21.025Z,8.02
2023-01-13T21:28:58.037Z,6.88
2023-01-13T21:31:30.801Z,8.18
2023-01-13T21:34:05.339Z,5.20
2023-01-13T21:36:38.116Z,5.45
2023-01-13T21:39:12.677Z,7.60
2023-01-13T21:42:02.769Z,3.92
2023-01-13T21:44:53.191Z,4.60
2023-01-13T21:47:43.445Z,9.68
2023-01-13T21:50:20.326Z,10.50
2023-01-13T21:52:53.823Z,3.63
2023-01-13T21:55:28.578Z,2.63
2023-01-13T21:58:09.039Z,9.40
2023-01-13T22:00:43.705Z,8.80
2023-01-13T22:03:18.306Z,8.32
2023-01-13T22:05:56.516Z,5.43
2023-01-13T22:08:29.326Z,8.65
2023-01-13T22:11:03.938Z,6.25
2023-01-13T22:13:54.812Z,5.40
2023-01-13T22:16:27.995Z,4.30
2023-01-13T22:19:00.805Z,5.07
2023-01-13T22:21:35.738Z,6.72
2023-01-13T22:24:08.989Z,4.00
2023-01-13T22:26:41.748Z,4.90
2023-01-13T22:29:14.511Z,2.58
2023-01-13T22:31:47.311Z,6.22
2023-01-13T22:34:20.146Z,2.70
2023-01-13T22:36:54.330Z,2.20
2023-01-13T22:39:27.880Z,3.17
2023-01-13T22:42:00.719Z,3.80
2023-01-13T22:44:33.631Z,5.72
2023-01-13T22:47:08.493Z,3.25
2023-01-13T22:49:42.099Z,9.07
2023-01-13T22:52:16.525Z,8.10
2023-01-13T22:54:49.411Z,6.55
2023-01-13T22:57:23.996Z,7.50
2023-01-13T22:59:56.994Z,8.93
2023-01-13T23:02:34.334Z,5.03
2023-01-13T23:05:07.649Z,11.27
2023-01-13T23:07:41.808Z,11.88
2023-01-13T23:10:14.607Z,4.47
2023-01-13T23:12:48.900Z,7.03
2023-01-13T23:15:21.778Z,7.50
2023-01-13T23:17:54.597Z,4.43
2023-01-13T23:20:27.427Z,13.23
2023-01-13T23:23:01.639Z,7.43
2023-01-13T23:25:34.387Z,8.50
2023-01-13T23:28:10.410Z,9.60
2023-01-13T23:30:43.299Z,8.63
2023-01-13T23:33:16.205Z,7.63
2023-01-13T23:35:56.749Z,8.05
2023-01-13T23:41:06.967Z,7.68
2023-01-13T23:43:39.823Z,6.93
2023-01-13T23:46:16.633Z,11.13
2023-01-13T23:48:49.967Z,5.97
2023-01-13T23:51:25.153Z,12.23
2023-01-13T23:54:00.058Z,7.22
2023-01-13T23:56:34.007Z,11.10
2023-01-13T23:59:06.794Z,10.50
